createdAt,value
2017-01-19T00:00:01.727Z,1010.11
2017-01-19T00:01:01.750Z,1010.04
2017-01-19T00:02:01.776Z,1010.11
2017-01-19T00:03:01.800Z,1010.09
2017-01-19T00:04:01.821Z,1010.07
2017-01-19T00:05:01.849Z,1010
2017-01-19T00:06:01.878Z,1010.07
2017-01-19T00:07:01.903Z,1010.08
2017-01-19T00:08:01.927Z,1010.21
2017-01-19T00:09:01.952Z,1010.18
2017-01-19T00:10:01.976Z,1010.17
2017-01-19T00:11:02.005Z,1010.21
2017-01-19T00:12:02.029Z,1010.16
2017-01-19T00:13:02.054Z,1010.18
2017-01-19T00:14:02.079Z,1010.16
2017-01-19T00:15:02.103Z,1010.18
2017-01-19T00:16:02.132Z,1010.17
2017-01-19T00:17:02.157Z,1010.19
2017-01-19T00:18:02.181Z,1010.22
2017-01-19T00:19:02.203Z,1010.18
2017-01-19T00:20:02.235Z,1010.21
2017-01-19T00:21:02.255Z,1010.16
2017-01-19T00:22:02.284Z,1010.21
2017-01-19T00:23:02.308Z,1010.16
2017-01-19T00:24:02.333Z,1010.17
2017-01-19T00:25:02.362Z,1010.15
2017-01-19T00:26:02.387Z,1010.14
2017-01-19T00:27:02.407Z,1010.16
2017-01-19T00:28:02.436Z,1010.17
2017-01-19T00:29:02.460Z,1010.18
2017-01-19T00:30:02.485Z,1010.2
2017-01-19T00:31:02.509Z,1010.25
2017-01-19T00:32:02.538Z,1010.18
2017-01-19T00:33:02.564Z,1010.12
2017-01-19T00:34:02.585Z,1010.17
2017-01-19T00:35:02.612Z,1010.16
2017-01-19T00:36:02.636Z,1010.2
2017-01-19T00:37:02.661Z,1010.21
2017-01-19T00:38:02.689Z,1010.22
2017-01-19T00:39:02.716Z,1010.14
2017-01-19T00:40:02.739Z,1010.19
2017-01-19T00:41:02.763Z,1010.15
2017-01-19T00:42:02.792Z,1010.16
2017-01-19T00:43:02.813Z,1010.13
2017-01-19T00:44:02.841Z,1010.11
2017-01-19T00:45:02.862Z,1010.13
2017-01-19T00:46:02.891Z,1010.12
2017-01-19T00:47:02.919Z,1010.1
2017-01-19T00:48:02.940Z,1010.1
2017-01-19T00:49:02.968Z,1010.13
2017-01-19T00:50:02.993Z,1010.12
2017-01-19T00:51:03.018Z,1010.12
2017-01-19T00:52:03.042Z,1010.07
2017-01-19T00:53:03.067Z,1010.12
2017-01-19T00:54:03.096Z,1010.08
2017-01-19T00:55:03.117Z,1010.09
2017-01-19T00:56:03.145Z,1010.08
2017-01-19T00:57:03.170Z,1010.13
2017-01-19T00:58:03.195Z,1010.12
2017-01-19T00:59:03.223Z,1010.11
2017-01-19T01:00:03.240Z,1010.15
2017-01-19T01:01:03.269Z,1010.13
2017-01-19T01:02:03.293Z,1010.11
2017-01-19T01:03:03.316Z,1010.12
2017-01-19T01:04:03.345Z,1010.17
2017-01-19T01:05:03.372Z,1010.18
2017-01-19T01:06:03.391Z,1010.1
2017-01-19T01:07:03.420Z,1010.08
2017-01-19T01:08:03.447Z,1010.09
2017-01-19T01:09:03.473Z,1010.02
2017-01-19T01:10:03.494Z,1010.01
2017-01-19T01:11:03.520Z,1010.01
2017-01-19T01:12:03.548Z,1010.08
2017-01-19T01:13:03.572Z,1010.06
2017-01-19T01:14:03.593Z,1010
2017-01-19T01:15:03.622Z,1010.05
2017-01-19T01:16:03.646Z,1010.07
2017-01-19T01:17:03.670Z,1010.01
2017-01-19T01:18:03.695Z,1009.99
2017-01-19T01:19:03.725Z,1010.05
2017-01-19T01:20:03.748Z,1009.98
2017-01-19T01:21:03.774Z,1009.99
2017-01-19T01:22:03.798Z,1009.92
2017-01-19T01:23:03.822Z,1009.98
2017-01-19T01:24:03.847Z,1009.98
2017-01-19T01:25:03.871Z,1010.01
2017-01-19T01:26:03.896Z,1009.93
2017-01-19T01:27:03.925Z,1009.98
2017-01-19T01:28:03.941Z,1010.04
2017-01-19T01:29:03.975Z,1009.97
2017-01-19T01:30:03.999Z,1009.96
2017-01-19T01:31:04.024Z,1009.99
2017-01-19T01:32:04.045Z,1010.02
2017-01-19T01:33:04.072Z,1010.03
2017-01-19T01:34:04.093Z,1010
2017-01-19T01:35:04.122Z,1009.93
2017-01-19T01:36:04.147Z,1010.04
2017-01-19T01:37:04.171Z,1010.03
2017-01-19T01:38:04.199Z,1009.97
2017-01-19T01:39:04.225Z,1009.87
2017-01-19T01:40:04.249Z,1009.9
2017-01-19T01:41:04.278Z,1009.85
2017-01-19T01:42:04.300Z,1009.95
2017-01-19T01:43:04.323Z,1009.96
2017-01-19T01:44:04.344Z,1009.9
2017-01-19T01:45:04.370Z,1009.94
2017-01-19T01:46:04.399Z,1009.91
2017-01-19T01:47:04.424Z,1009.95
2017-01-19T01:48:04.450Z,1009.88
2017-01-19T01:49:04.478Z,1009.88
2017-01-19T01:50:04.498Z,1009.9
2017-01-19T01:51:04.523Z,1009.87
2017-01-19T01:52:04.553Z,1009.88
2017-01-19T01:53:04.577Z,1009.87
2017-01-19T01:54:04.603Z,1009.9
2017-01-19T01:55:04.628Z,1009.88
2017-01-19T01:56:04.653Z,1009.87
2017-01-19T01:57:04.678Z,1009.86
2017-01-19T01:58:04.703Z,1009.81
2017-01-19T01:59:04.728Z,1009.85
2017-01-19T02:00:04.752Z,1009.82
2017-01-19T02:01:04.777Z,1009.84
2017-01-19T02:02:04.803Z,1009.87
2017-01-19T02:03:04.828Z,1009.88
2017-01-19T02:04:04.857Z,1009.88
2017-01-19T02:05:04.878Z,1009.85
2017-01-19T02:06:04.906Z,1009.88
2017-01-19T02:07:04.931Z,1009.91
2017-01-19T02:08:04.956Z,1009.95
2017-01-19T02:09:04.981Z,1009.88
2017-01-19T02:10:05.010Z,1009.89
2017-01-19T02:11:05.031Z,1009.89
2017-01-19T02:12:05.056Z,1009.92
2017-01-19T02:13:05.081Z,1009.92
2017-01-19T02:14:05.103Z,1009.93
2017-01-19T02:15:05.130Z,1009.93
2017-01-19T02:16:05.154Z,1009.92
2017-01-19T02:17:05.186Z,1009.92
2017-01-19T02:18:05.206Z,1009.93
2017-01-19T02:19:05.231Z,1009.97
2017-01-19T02:20:05.260Z,1009.93
2017-01-19T02:21:05.288Z,1009.96
2017-01-19T02:22:05.310Z,1009.96
2017-01-19T02:23:05.335Z,1010.01
2017-01-19T02:24:05.360Z,1009.98
2017-01-19T02:25:05.381Z,1010.02
2017-01-19T02:26:05.410Z,1010.02
2017-01-19T02:27:05.435Z,1010.01
2017-01-19T02:28:05.460Z,1010.03
2017-01-19T02:29:05.485Z,1010.05
2017-01-19T02:30:05.511Z,1010.07
2017-01-19T02:31:05.535Z,1010.06
2017-01-19T02:32:05.561Z,1010.04
2017-01-19T02:33:05.585Z,1010.04
2017-01-19T02:34:05.610Z,1010.11
2017-01-19T02:35:05.635Z,1010.03
2017-01-19T02:36:05.660Z,1010.11
2017-01-19T02:37:05.685Z,1010.08
2017-01-19T02:38:05.711Z,1010.14
2017-01-19T02:39:05.736Z,1010.09
2017-01-19T02:40:05.762Z,1010.14
2017-01-19T02:41:05.785Z,1010.06
2017-01-19T02:42:05.814Z,1010.16
2017-01-19T02:43:05.839Z,1010.06
2017-01-19T02:44:05.865Z,1010.14
2017-01-19T02:45:05.889Z,1010.1
2017-01-19T02:46:05.914Z,1010.12
2017-01-19T02:47:05.939Z,1010.11
2017-01-19T02:48:05.964Z,1010.14
2017-01-19T02:49:05.989Z,1010.11
2017-01-19T02:50:06.014Z,1010.17
2017-01-19T02:51:06.040Z,1010.1
2017-01-19T02:52:06.063Z,1010.12
2017-01-19T02:53:06.089Z,1010.11
2017-01-19T02:54:06.109Z,1010.18
2017-01-19T02:55:06.139Z,1010.17
2017-01-19T02:56:06.164Z,1010.18
2017-01-19T02:57:06.188Z,1010.15
2017-01-19T02:58:06.214Z,1010.17
2017-01-19T02:59:06.238Z,1010.19
2017-01-19T03:00:06.263Z,1010.12
2017-01-19T03:01:06.292Z,1010.18
2017-01-19T03:02:06.314Z,1010.08
2017-01-19T03:03:06.338Z,1010.09
2017-01-19T03:04:06.363Z,1010.07
2017-01-19T03:05:06.388Z,1010.12
2017-01-19T03:06:06.413Z,1010.11
2017-01-19T03:07:06.438Z,1010.05
2017-01-19T03:08:06.463Z,1010.06
2017-01-19T03:09:06.488Z,1010.13
2017-01-19T03:10:06.513Z,1010.09
2017-01-19T03:11:06.537Z,1010.11
2017-01-19T03:12:06.562Z,1010.06
2017-01-19T03:13:06.587Z,1010.08
2017-01-19T03:14:06.612Z,1010.09
2017-01-19T03:15:06.633Z,1010.16
2017-01-19T03:16:06.661Z,1010.17
2017-01-19T03:17:06.687Z,1010.1
2017-01-19T03:18:06.712Z,1010.15
2017-01-19T03:19:06.733Z,1010.15
2017-01-19T03:20:06.761Z,1010.09
2017-01-19T03:21:06.786Z,1010.2
2017-01-19T03:22:06.811Z,1010.17
2017-01-19T03:23:06.832Z,1010.23
2017-01-19T03:24:06.865Z,1010.18
2017-01-19T03:25:06.886Z,1010.14
2017-01-19T03:26:06.911Z,1010.16
2017-01-19T03:27:06.936Z,1010.17
2017-01-19T03:28:06.965Z,1010.19
2017-01-19T03:29:06.985Z,1010.11
2017-01-19T03:30:07.012Z,1010.17
2017-01-19T03:31:07.039Z,1010.14
2017-01-19T03:32:07.056Z,1010.16
2017-01-19T03:33:07.084Z,1010.1
2017-01-19T03:34:07.113Z,1010.03
2017-01-19T03:35:07.138Z,1010.11
2017-01-19T03:36:07.159Z,1010.08
2017-01-19T03:37:07.183Z,1010.02
2017-01-19T03:38:07.210Z,1010.04
2017-01-19T03:39:07.237Z,1010
2017-01-19T03:40:07.258Z,1009.96
2017-01-19T03:41:07.283Z,1009.95
2017-01-19T03:42:07.307Z,1009.95
2017-01-19T03:43:07.333Z,1009.89
2017-01-19T03:44:07.359Z,1009.94
2017-01-19T03:45:07.382Z,1009.92
2017-01-19T03:46:07.407Z,1009.88
2017-01-19T03:47:07.431Z,1009.97
2017-01-19T03:48:07.460Z,1009.91
2017-01-19T03:49:07.477Z,1010
2017-01-19T03:50:07.506Z,1010.01
2017-01-19T03:51:07.528Z,1009.96
2017-01-19T03:52:07.559Z,1009.97
2017-01-19T03:53:07.584Z,1009.98
2017-01-19T03:54:07.606Z,1009.94
2017-01-19T03:55:07.630Z,1010.01
2017-01-19T03:56:07.658Z,1009.98
2017-01-19T03:57:07.683Z,1009.95
2017-01-19T03:58:07.700Z,1009.95
2017-01-19T03:59:07.728Z,1010
2017-01-19T04:00:07.754Z,1009.99
2017-01-19T04:01:07.778Z,1009.95
2017-01-19T04:02:07.803Z,1009.96
2017-01-19T04:03:07.828Z,1009.93
2017-01-19T04:04:07.854Z,1009.96
2017-01-19T04:05:07.878Z,1009.93
2017-01-19T04:06:07.902Z,1009.95
2017-01-19T04:07:07.927Z,1009.97
2017-01-19T04:08:07.952Z,1010
2017-01-19T04:09:07.977Z,1010
2017-01-19T04:10:08.001Z,1009.94
2017-01-19T04:11:08.027Z,1009.9
2017-01-19T04:12:08.051Z,1009.91
2017-01-19T04:13:08.076Z,1009.84
2017-01-19T04:14:08.100Z,1009.86
2017-01-19T04:15:08.125Z,1009.9
2017-01-19T04:16:08.150Z,1009.84
2017-01-19T04:17:08.175Z,1009.87
2017-01-19T04:18:08.200Z,1009.88
2017-01-19T04:19:08.225Z,1009.88
2017-01-19T04:20:08.248Z,1009.83
2017-01-19T04:21:08.274Z,1009.84
2017-01-19T04:22:08.299Z,1009.84
2017-01-19T04:23:08.324Z,1009.86
2017-01-19T04:24:08.348Z,1009.85
2017-01-19T04:25:08.373Z,1009.83
2017-01-19T04:26:08.398Z,1009.83
2017-01-19T04:27:08.419Z,1009.83
2017-01-19T04:28:08.448Z,1009.88
2017-01-19T04:29:08.469Z,1009.88
2017-01-19T04:30:08.498Z,1009.88
2017-01-19T04:31:08.519Z,1009.86
2017-01-19T04:32:08.543Z,1009.82
2017-01-19T04:33:08.563Z,1009.85
2017-01-19T04:34:08.588Z,1009.81
2017-01-19T04:35:08.627Z,1009.82
2017-01-19T04:36:08.642Z,1009.87
2017-01-19T04:37:08.667Z,1009.93
2017-01-19T04:38:08.691Z,1009.88
2017-01-19T04:39:08.716Z,1010.04
2017-01-19T04:40:08.741Z,1009.92
2017-01-19T04:41:08.771Z,1009.91
2017-01-19T04:42:08.790Z,1009.9
2017-01-19T04:43:08.816Z,1009.97
2017-01-19T04:44:08.841Z,1009.95
2017-01-19T04:45:08.861Z,1010
2017-01-19T04:46:08.890Z,1009.94
2017-01-19T04:47:08.914Z,1010.01
2017-01-19T04:48:08.939Z,1009.96
2017-01-19T04:49:08.964Z,1010.01
2017-01-19T04:50:08.989Z,1009.96
2017-01-19T04:51:09.010Z,1010.05
2017-01-19T04:52:09.039Z,1010.05
2017-01-19T04:53:09.060Z,1010.07
2017-01-19T04:54:09.085Z,1010.03
2017-01-19T04:55:09.109Z,1009.99
2017-01-19T04:56:09.133Z,1010.08
2017-01-19T04:57:09.158Z,1010.1
2017-01-19T04:58:09.182Z,1010.08
2017-01-19T04:59:09.206Z,1010.03
2017-01-19T05:00:09.226Z,1010.1
2017-01-19T05:01:09.256Z,1010.14
2017-01-19T05:02:09.279Z,1010.12
2017-01-19T05:03:09.304Z,1010.12
2017-01-19T05:04:09.333Z,1010.13
2017-01-19T05:05:09.352Z,1010.16
2017-01-19T05:06:09.382Z,1010.08
2017-01-19T05:07:09.400Z,1010.14
2017-01-19T05:08:09.426Z,1010.04
2017-01-19T05:09:09.455Z,1010.05
2017-01-19T05:10:09.475Z,1010.04
2017-01-19T05:11:09.495Z,1010.03
2017-01-19T05:12:09.520Z,1010.04
2017-01-19T05:13:09.545Z,1010.05
2017-01-19T05:14:09.568Z,1010.03
2017-01-19T05:15:09.593Z,1010.09
2017-01-19T05:16:09.618Z,1010.04
2017-01-19T05:17:09.642Z,1010.1
2017-01-19T05:18:09.666Z,1010.05
2017-01-19T05:19:09.691Z,1010.09
2017-01-19T05:20:09.711Z,1010.12
2017-01-19T05:21:09.735Z,1010.13
2017-01-19T05:22:09.764Z,1010.08
2017-01-19T05:23:09.788Z,1010.09
2017-01-19T05:24:09.809Z,1010.12
2017-01-19T05:25:09.834Z,1010.19
2017-01-19T05:26:09.862Z,1010.16
2017-01-19T05:27:09.887Z,1010.19
2017-01-19T05:28:09.911Z,1010.21
2017-01-19T05:29:09.931Z,1010.18
2017-01-19T05:30:09.956Z,1010.2
2017-01-19T05:31:09.981Z,1010.2
2017-01-19T05:32:10.002Z,1010.21
2017-01-19T05:33:10.030Z,1010.27
2017-01-19T05:34:10.054Z,1010.16
2017-01-19T05:35:10.079Z,1010.14
2017-01-19T05:36:10.103Z,1010.18
2017-01-19T05:37:10.129Z,1010.15
2017-01-19T05:38:10.153Z,1010.18
2017-01-19T05:39:10.177Z,1010.22
2017-01-19T05:40:10.202Z,1010.19
2017-01-19T05:41:10.234Z,1010.15
2017-01-19T05:42:10.252Z,1010.19
2017-01-19T05:43:10.276Z,1010.17
2017-01-19T05:44:10.297Z,1010.2
2017-01-19T05:45:10.321Z,1010.21
2017-01-19T05:46:10.346Z,1010.21
2017-01-19T05:47:10.371Z,1010.24
2017-01-19T05:48:10.395Z,1010.22
2017-01-19T05:49:10.421Z,1010.2
2017-01-19T05:50:10.441Z,1010.22
2017-01-19T05:51:10.469Z,1010.21
2017-01-19T05:52:10.494Z,1010.22
2017-01-19T05:53:10.515Z,1010.28
2017-01-19T05:54:10.543Z,1010.23
2017-01-19T05:55:10.568Z,1010.25
2017-01-19T05:56:10.593Z,1010.23
2017-01-19T05:57:10.618Z,1010.24
2017-01-19T05:58:10.643Z,1010.19
2017-01-19T05:59:10.666Z,1010.21
2017-01-19T06:00:10.692Z,1010.22
2017-01-19T06:01:10.712Z,1010.2
2017-01-19T06:02:10.737Z,1010.26
2017-01-19T06:03:10.761Z,1010.17
2017-01-19T06:04:10.786Z,1010.14
2017-01-19T06:05:10.815Z,1010.22
2017-01-19T06:06:10.835Z,1010.19
2017-01-19T06:07:10.860Z,1010.15
2017-01-19T06:08:10.884Z,1010.15
2017-01-19T06:09:10.910Z,1010.1
2017-01-19T06:10:10.930Z,1010.11
2017-01-19T06:11:10.960Z,1010.13
2017-01-19T06:12:10.980Z,1010.12
2017-01-19T06:13:11.005Z,1010.14
2017-01-19T06:14:11.033Z,1010.12
2017-01-19T06:15:11.059Z,1010.06
2017-01-19T06:16:11.082Z,1010.13
2017-01-19T06:17:11.124Z,1010.05
2017-01-19T06:18:11.132Z,1010.14
2017-01-19T06:19:11.152Z,1010.18
2017-01-19T06:20:11.180Z,1010.17
2017-01-19T06:21:11.206Z,1010.14
2017-01-19T06:22:11.231Z,1010.18
2017-01-19T06:23:11.256Z,1010.17
2017-01-19T06:24:11.281Z,1010.13
2017-01-19T06:25:11.300Z,1010.15
2017-01-19T06:26:11.329Z,1010.08
2017-01-19T06:27:11.354Z,1010.04
2017-01-19T06:28:11.380Z,1010.03
2017-01-19T06:29:11.404Z,1010.11
2017-01-19T06:30:11.429Z,1010.06
2017-01-19T06:31:11.455Z,1010.12
2017-01-19T06:32:11.479Z,1010.05
2017-01-19T06:33:11.503Z,1010.11
2017-01-19T06:34:11.527Z,1010.09
2017-01-19T06:35:11.552Z,1010.12
2017-01-19T06:36:11.577Z,1010.12
2017-01-19T06:37:11.606Z,1010.09
2017-01-19T06:38:11.623Z,1010.11
2017-01-19T06:39:11.652Z,1010.07
2017-01-19T06:40:11.676Z,1010.12
2017-01-19T06:41:11.699Z,1010.14
2017-01-19T06:42:11.726Z,1010.2
2017-01-19T06:43:11.750Z,1010.22
2017-01-19T06:44:11.775Z,1010.21
2017-01-19T06:45:11.803Z,1010.23
2017-01-19T06:46:11.824Z,1010.23
2017-01-19T06:47:11.849Z,1010.27
2017-01-19T06:48:11.873Z,1010.3
2017-01-19T06:49:11.900Z,1010.28
2017-01-19T06:50:11.924Z,1010.28
2017-01-19T06:51:11.948Z,1010.33
2017-01-19T06:52:11.972Z,1010.32
2017-01-19T06:53:11.997Z,1010.31
2017-01-19T06:54:12.022Z,1010.35
2017-01-19T06:55:12.047Z,1010.31
2017-01-19T06:56:12.071Z,1010.29
2017-01-19T06:57:12.096Z,1010.31
2017-01-19T06:58:12.121Z,1010.37
2017-01-19T06:59:12.146Z,1010.34
2017-01-19T07:00:12.174Z,1010.37
2017-01-19T07:01:12.199Z,1010.41
2017-01-19T07:02:12.224Z,1010.43
2017-01-19T07:03:12.248Z,1010.46
2017-01-19T07:04:12.273Z,1010.47
2017-01-19T07:05:12.298Z,1010.53
2017-01-19T07:06:12.323Z,1010.49
2017-01-19T07:07:12.348Z,1010.53
2017-01-19T07:08:12.372Z,1010.59
2017-01-19T07:09:12.397Z,1010.55
2017-01-19T07:10:12.422Z,1010.51
2017-01-19T07:11:12.446Z,1010.59
2017-01-19T07:12:12.470Z,1010.61
2017-01-19T07:13:12.495Z,1010.58
2017-01-19T07:14:12.520Z,1010.57
2017-01-19T07:15:12.543Z,1010.56
2017-01-19T07:16:12.572Z,1010.52
2017-01-19T07:17:12.595Z,1010.52
2017-01-19T07:18:12.623Z,1010.55
2017-01-19T07:19:12.643Z,1010.56
2017-01-19T07:20:12.664Z,1010.6
2017-01-19T07:21:12.698Z,1010.54
2017-01-19T07:22:12.719Z,1010.56
2017-01-19T07:23:12.747Z,1010.56
2017-01-19T07:24:12.772Z,1010.61
2017-01-19T07:25:12.797Z,1010.55
2017-01-19T07:26:12.821Z,1010.52
2017-01-19T07:27:12.846Z,1010.61
2017-01-19T07:28:12.874Z,1010.53
2017-01-19T07:29:12.895Z,1010.55
2017-01-19T07:30:12.920Z,1010.53
2017-01-19T07:31:12.943Z,1010.56
2017-01-19T07:32:12.971Z,1010.56
2017-01-19T07:33:12.998Z,1010.51
2017-01-19T07:34:13.019Z,1010.52
2017-01-19T07:35:13.043Z,1010.58
2017-01-19T07:36:13.067Z,1010.55
2017-01-19T07:37:13.092Z,1010.55
2017-01-19T07:38:13.116Z,1010.54
2017-01-19T07:39:13.145Z,1010.57
2017-01-19T07:40:13.166Z,1010.53
2017-01-19T07:41:13.190Z,1010.58
2017-01-19T07:42:13.218Z,1010.53
2017-01-19T07:43:13.244Z,1010.54
2017-01-19T07:44:13.267Z,1010.44
2017-01-19T07:45:13.292Z,1010.51
2017-01-19T07:46:13.317Z,1010.5
2017-01-19T07:47:13.341Z,1010.52
2017-01-19T07:48:13.366Z,1010.46
2017-01-19T07:49:13.391Z,1010.49
2017-01-19T07:50:13.415Z,1010.52
2017-01-19T07:51:13.436Z,1010.51
2017-01-19T07:52:13.464Z,1010.66
2017-01-19T07:53:13.489Z,1010.54
2017-01-19T07:54:13.509Z,1010.57
2017-01-19T07:55:13.540Z,1010.63
2017-01-19T07:56:13.563Z,1010.69
2017-01-19T07:57:13.588Z,1010.68
2017-01-19T07:58:13.616Z,1010.66
2017-01-19T07:59:13.638Z,1010.69
2017-01-19T08:00:13.662Z,1010.67
2017-01-19T08:01:13.691Z,1010.74
2017-01-19T08:02:13.715Z,1010.74
2017-01-19T08:03:13.740Z,1010.69
2017-01-19T08:04:13.769Z,1010.7
2017-01-19T08:05:13.789Z,1010.68
2017-01-19T08:06:13.814Z,1010.68
2017-01-19T08:07:13.838Z,1010.66
2017-01-19T08:08:13.860Z,1010.64
2017-01-19T08:09:13.892Z,1010.64
2017-01-19T08:10:13.917Z,1010.58
2017-01-19T08:11:13.937Z,1010.58
2017-01-19T08:12:13.962Z,1010.58
2017-01-19T08:13:13.987Z,1010.6
2017-01-19T08:14:14.011Z,1010.53
2017-01-19T08:15:14.036Z,1010.47
2017-01-19T08:16:14.065Z,1010.53
2017-01-19T08:17:14.085Z,1010.49
2017-01-19T08:18:14.110Z,1010.47
2017-01-19T08:19:14.134Z,1010.47
2017-01-19T08:20:14.159Z,1010.44
2017-01-19T08:21:14.184Z,1010.46
2017-01-19T08:22:14.209Z,1010.43
2017-01-19T08:23:14.234Z,1010.42
2017-01-19T08:24:14.262Z,1010.4
2017-01-19T08:25:14.283Z,1010.46
2017-01-19T08:26:14.303Z,1010.49
2017-01-19T08:27:14.336Z,1010.54
2017-01-19T08:28:14.356Z,1010.53
2017-01-19T08:29:14.385Z,1010.52
2017-01-19T08:30:14.410Z,1010.56
2017-01-19T08:31:14.435Z,1010.56
2017-01-19T08:32:14.455Z,1010.55
2017-01-19T08:33:14.480Z,1010.55
2017-01-19T08:34:14.509Z,1010.55
2017-01-19T08:35:14.534Z,1010.62
2017-01-19T08:36:14.559Z,1010.58
2017-01-19T08:37:14.584Z,1010.66
2017-01-19T08:38:14.608Z,1010.6
2017-01-19T08:39:14.629Z,1010.58
2017-01-19T08:40:14.658Z,1010.6
2017-01-19T08:41:14.682Z,1010.63
2017-01-19T08:42:14.707Z,1010.62
2017-01-19T08:43:14.731Z,1010.65
2017-01-19T08:44:14.756Z,1010.66
2017-01-19T08:45:14.785Z,1010.67
2017-01-19T08:46:14.807Z,1010.65
2017-01-19T08:47:14.834Z,1010.67
2017-01-19T08:48:14.860Z,1010.66
2017-01-19T08:49:14.884Z,1010.61
2017-01-19T08:50:14.905Z,1010.59
2017-01-19T08:51:14.933Z,1010.61
2017-01-19T08:52:14.958Z,1010.53
2017-01-19T08:53:14.983Z,1010.55
2017-01-19T08:54:15.008Z,1010.59
2017-01-19T08:55:15.032Z,1010.67
2017-01-19T08:56:15.057Z,1010.67
2017-01-19T08:57:15.082Z,1010.65
2017-01-19T08:58:15.106Z,1010.67
2017-01-19T08:59:15.131Z,1010.62
2017-01-19T09:00:15.156Z,1010.58
2017-01-19T09:01:15.181Z,1010.65
2017-01-19T09:02:15.205Z,1010.63
2017-01-19T09:03:15.230Z,1010.61
2017-01-19T09:04:15.259Z,1010.65
2017-01-19T09:05:15.283Z,1010.59
2017-01-19T09:06:15.308Z,1010.63
2017-01-19T09:07:15.332Z,1010.61
2017-01-19T09:08:15.357Z,1010.6
2017-01-19T09:09:15.387Z,1010.66
2017-01-19T09:10:15.407Z,1010.59
2017-01-19T09:11:15.432Z,1010.66
2017-01-19T09:12:15.456Z,1010.69
2017-01-19T09:13:15.481Z,1010.66
2017-01-19T09:14:15.506Z,1010.66
2017-01-19T09:15:15.530Z,1010.64
2017-01-19T09:16:15.555Z,1010.68
2017-01-19T09:17:15.579Z,1010.65
2017-01-19T09:18:15.604Z,1010.66
2017-01-19T09:19:15.633Z,1010.74
2017-01-19T09:20:15.658Z,1010.68
2017-01-19T09:21:15.682Z,1010.67
2017-01-19T09:22:15.703Z,1010.6
2017-01-19T09:23:15.731Z,1010.67
2017-01-19T09:24:15.756Z,1010.64
2017-01-19T09:25:15.780Z,1010.64
2017-01-19T09:26:15.805Z,1010.56
2017-01-19T09:27:15.830Z,1010.62
2017-01-19T09:28:15.852Z,1010.64
2017-01-19T09:29:15.883Z,1010.59
2017-01-19T09:30:15.909Z,1010.66
2017-01-19T09:31:15.932Z,1010.66
2017-01-19T09:32:15.957Z,1010.67
2017-01-19T09:33:15.981Z,1010.7
2017-01-19T09:34:16.009Z,1010.69
2017-01-19T09:35:16.027Z,1010.67
2017-01-19T09:36:16.055Z,1010.64
2017-01-19T09:37:16.080Z,1010.66
2017-01-19T09:38:16.105Z,1010.67
2017-01-19T09:39:16.133Z,1010.69
2017-01-19T09:40:16.157Z,1010.69
2017-01-19T09:41:16.183Z,1010.72
2017-01-19T09:42:16.210Z,1010.73
2017-01-19T09:43:16.232Z,1010.72
2017-01-19T09:44:16.258Z,1010.77
2017-01-19T09:45:16.281Z,1010.76
2017-01-19T09:46:16.306Z,1010.8
2017-01-19T09:47:16.336Z,1010.77
2017-01-19T09:48:16.359Z,1010.75
2017-01-19T09:49:16.384Z,1010.85
2017-01-19T09:50:16.411Z,1010.77
2017-01-19T09:51:16.433Z,1010.76
2017-01-19T09:52:16.454Z,1010.71
2017-01-19T09:53:16.483Z,1010.79
2017-01-19T09:54:16.508Z,1010.76
2017-01-19T09:55:16.532Z,1010.81
2017-01-19T09:56:16.557Z,1010.8
2017-01-19T09:57:16.585Z,1010.8
2017-01-19T09:58:16.610Z,1010.78
2017-01-19T09:59:16.635Z,1010.85
2017-01-19T10:00:16.660Z,1010.8
2017-01-19T10:01:16.685Z,1010.79
2017-01-19T10:02:16.709Z,1010.91
2017-01-19T10:03:16.734Z,1010.82
2017-01-19T10:04:16.762Z,1010.82
2017-01-19T10:05:16.787Z,1010.85
2017-01-19T10:06:16.812Z,1010.83
2017-01-19T10:07:16.837Z,1010.84
2017-01-19T10:08:16.862Z,1010.81
2017-01-19T10:09:16.882Z,1010.84
2017-01-19T10:10:16.915Z,1010.83
2017-01-19T10:11:16.940Z,1010.79
2017-01-19T10:12:16.964Z,1010.85
2017-01-19T10:13:16.990Z,1010.8
2017-01-19T10:14:17.014Z,1010.81
2017-01-19T10:15:17.041Z,1010.78
2017-01-19T10:16:17.070Z,1010.82
2017-01-19T10:17:17.093Z,1010.83
2017-01-19T10:18:17.118Z,1010.82
2017-01-19T10:19:17.142Z,1010.79
2017-01-19T10:20:17.166Z,1010.85
2017-01-19T10:21:17.187Z,1010.82
2017-01-19T10:22:17.216Z,1010.9
2017-01-19T10:23:17.245Z,1010.84
2017-01-19T10:24:17.270Z,1010.87
2017-01-19T10:25:17.299Z,1010.93
2017-01-19T10:26:17.319Z,1010.88
2017-01-19T10:27:17.344Z,1010.94
2017-01-19T10:28:17.369Z,1010.99
2017-01-19T10:29:17.397Z,1010.79
2017-01-19T10:30:17.422Z,1010.81
2017-01-19T10:31:17.442Z,1010.81
2017-01-19T10:32:17.472Z,1010.86
2017-01-19T10:33:17.496Z,1010.82
2017-01-19T10:34:17.517Z,1010.81
2017-01-19T10:35:17.550Z,1010.77
2017-01-19T10:36:17.570Z,1010.75
2017-01-19T10:37:17.595Z,1010.77
2017-01-19T10:38:17.624Z,1010.7
2017-01-19T10:39:17.648Z,1010.68
2017-01-19T10:40:17.674Z,1010.73
2017-01-19T10:41:17.695Z,1010.7
2017-01-19T10:42:17.726Z,1010.72
2017-01-19T10:43:17.751Z,1010.68
2017-01-19T10:44:17.775Z,1010.71
2017-01-19T10:45:17.801Z,1010.72
2017-01-19T10:46:17.824Z,1010.69
2017-01-19T10:47:17.847Z,1010.74
2017-01-19T10:48:17.879Z,1010.69
2017-01-19T10:49:17.904Z,1010.67
2017-01-19T10:50:17.928Z,1010.69
2017-01-19T10:51:17.957Z,1010.68
2017-01-19T10:52:17.978Z,1010.69
2017-01-19T10:53:18.008Z,1010.66
2017-01-19T10:54:18.035Z,1010.67
2017-01-19T10:55:18.058Z,1010.7
2017-01-19T10:56:18.082Z,1010.63
2017-01-19T10:57:18.105Z,1010.67
2017-01-19T10:58:18.131Z,1010.65
2017-01-19T10:59:18.155Z,1010.6
2017-01-19T11:00:18.188Z,1010.61
2017-01-19T11:01:18.209Z,1010.69
2017-01-19T11:02:18.234Z,1010.62
2017-01-19T11:03:18.255Z,1010.64
2017-01-19T11:04:18.288Z,1010.6
2017-01-19T11:05:18.308Z,1010.57
2017-01-19T11:06:18.337Z,1010.59
2017-01-19T11:07:18.371Z,1010.56
2017-01-19T11:08:18.386Z,1010.56
2017-01-19T11:09:18.414Z,1010.59
2017-01-19T11:10:18.440Z,1010.55
2017-01-19T11:11:18.479Z,1010.57
2017-01-19T11:12:18.490Z,1010.54
2017-01-19T11:13:18.515Z,1010.5
2017-01-19T11:14:18.539Z,1010.55
2017-01-19T11:15:18.567Z,1010.49
2017-01-19T11:16:18.596Z,1010.54
2017-01-19T11:17:18.621Z,1010.49
2017-01-19T11:18:18.642Z,1010.55
2017-01-19T11:19:18.670Z,1010.49
2017-01-19T11:20:18.692Z,1010.47
2017-01-19T11:21:18.727Z,1010.43
2017-01-19T11:22:18.744Z,1010.46
2017-01-19T11:23:18.772Z,1010.48
2017-01-19T11:24:18.795Z,1010.43
2017-01-19T11:25:18.823Z,1010.37
2017-01-19T11:26:18.848Z,1010.36
2017-01-19T11:27:18.869Z,1010.41
2017-01-19T11:28:18.898Z,1010.38
2017-01-19T11:29:18.922Z,1010.33
2017-01-19T11:30:18.951Z,1010.3
2017-01-19T11:31:18.977Z,1010.36
2017-01-19T11:32:19.001Z,1010.35
2017-01-19T11:33:19.025Z,1010.34
2017-01-19T11:34:19.055Z,1010.38
2017-01-19T11:35:19.083Z,1010.33
2017-01-19T11:36:19.104Z,1010.35
2017-01-19T11:37:19.129Z,1010.32
2017-01-19T11:38:19.153Z,1010.27
2017-01-19T11:39:19.178Z,1010.31
2017-01-19T11:40:19.207Z,1010.25
2017-01-19T11:41:19.232Z,1010.25
2017-01-19T11:42:19.257Z,1010.26
2017-01-19T11:43:19.282Z,1010.27
2017-01-19T11:44:19.313Z,1010.19
2017-01-19T11:45:19.347Z,1010.18
2017-01-19T11:46:19.360Z,1010.18
2017-01-19T11:47:19.390Z,1010.15
2017-01-19T11:48:19.414Z,1010.19
2017-01-19T11:49:19.435Z,1010.18
2017-01-19T11:50:19.463Z,1010.17
2017-01-19T11:51:19.490Z,1010.09
2017-01-19T11:52:19.517Z,1010.16
2017-01-19T11:53:19.542Z,1010.14
2017-01-19T11:54:19.566Z,1010.04
2017-01-19T11:55:19.591Z,1010.07
2017-01-19T11:56:19.617Z,1010.11
2017-01-19T11:57:19.649Z,1010.13
2017-01-19T11:58:19.670Z,1010.14
2017-01-19T11:59:19.703Z,1010.07
2017-01-19T12:00:19.719Z,1010.07
2017-01-19T12:01:19.747Z,1010.07
2017-01-19T12:02:19.773Z,1010.07
2017-01-19T12:03:19.797Z,1010.09
2017-01-19T12:04:19.824Z,1010.08
2017-01-19T12:05:19.860Z,1010.05
2017-01-19T12:06:19.880Z,1010.07
2017-01-19T12:07:19.901Z,1010.07
2017-01-19T12:08:19.929Z,1010.05